createdAt,value
2018-05-10T00:00:09.464Z,28.50
2018-05-10T00:01:09.444Z,28.50
2018-05-10T00:02:09.412Z,28.10
2018-05-10T00:03:09.392Z,28.80
2018-05-10T00:04:09.376Z,28.40
2018-05-10T00:05:09.354Z,28.20
2018-05-10T00:06:09.324Z,27.80
2018-05-10T00:07:09.299Z,28.00
2018-05-10T00:08:09.283Z,28.50
2018-05-10T00:09:09.260Z,28.00
2018-05-10T00:10:09.235Z,28.80
2018-05-10T00:11:09.209Z,29.70
2018-05-10T00:12:09.191Z,28.20
2018-05-10T00:13:09.162Z,29.20
2018-05-10T00:14:09.138Z,29.80
2018-05-10T00:15:09.119Z,30.00
2018-05-10T00:16:09.100Z,30.80
2018-05-10T00:17:09.071Z,30.10
2018-05-10T00:18:09.050Z,31.30
2018-05-10T00:19:09.023Z,33.10
2018-05-10T00:20:09.012Z,32.80
2018-05-10T00:21:08.978Z,33.00
2018-05-10T00:22:08.962Z,33.30
2018-05-10T00:23:08.937Z,33.90
2018-05-10T00:24:08.914Z,34.10
2018-05-10T00:25:08.882Z,35.90
2018-05-10T00:26:08.869Z,37.20
2018-05-10T00:27:08.842Z,36.70
2018-05-10T00:28:08.817Z,37.00
2018-05-10T00:29:08.800Z,39.80
2018-05-10T00:30:08.773Z,38.10
2018-05-10T00:31:08.750Z,39.40
2018-05-10T00:32:08.723Z,38.40
2018-05-10T00:33:08.703Z,39.40
2018-05-10T00:34:08.678Z,40.20
2018-05-10T00:35:08.658Z,41.10
2018-05-10T00:36:08.625Z,41.70
2018-05-10T00:37:08.614Z,41.80
2018-05-10T00:38:08.582Z,41.70
2018-05-10T00:39:08.562Z,41.70
2018-05-10T00:40:08.539Z,42.10
2018-05-10T00:41:08.519Z,41.00
2018-05-10T00:42:08.488Z,39.80
2018-05-10T00:43:08.465Z,40.20
2018-05-10T00:44:08.446Z,38.40
2018-05-10T00:45:08.424Z,39.50
2018-05-10T00:46:08.395Z,40.70
2018-05-10T00:47:08.379Z,41.60
2018-05-10T00:48:08.348Z,42.50
2018-05-10T00:49:08.327Z,41.80
2018-05-10T00:50:08.304Z,44.30
2018-05-10T00:51:08.344Z,46.50
2018-05-10T00:52:08.257Z,46.90
2018-05-10T00:53:08.230Z,47.30
2018-05-10T00:54:08.217Z,47.50
2018-05-10T00:55:08.182Z,49.20
2018-05-10T00:56:08.163Z,49.10
2018-05-10T00:57:08.138Z,49.50
2018-05-10T00:58:08.123Z,51.30
2018-05-10T00:59:08.101Z,51.80
2018-05-10T01:00:08.073Z,48.90
2018-05-10T01:01:08.056Z,50.60
2018-05-10T01:02:08.025Z,51.40
2018-05-10T01:03:08.002Z,51.10
2018-05-10T01:04:07.976Z,52.70
2018-05-10T01:05:07.956Z,52.60
2018-05-10T01:06:07.928Z,53.00
2018-05-10T01:07:07.910Z,53.40
2018-05-10T01:08:07.880Z,54.20
2018-05-10T01:09:07.868Z,54.60
2018-05-10T01:10:07.830Z,55.20
2018-05-10T01:11:07.813Z,55.10
2018-05-10T01:12:07.784Z,55.30
2018-05-10T01:13:07.771Z,54.30
2018-05-10T01:14:07.739Z,56.30
2018-05-10T01:15:07.723Z,57.10
2018-05-10T01:16:07.699Z,57.30
2018-05-10T01:17:07.670Z,58.30
2018-05-10T01:18:07.649Z,56.90
2018-05-10T01:19:07.638Z,56.90
2018-05-10T01:20:07.604Z,58.60
2018-05-10T01:21:07.574Z,57.00
2018-05-10T01:22:07.555Z,58.30
2018-05-10T01:23:07.527Z,58.70
2018-05-10T01:24:07.510Z,57.80
2018-05-10T01:25:07.481Z,57.10
2018-05-10T01:26:07.463Z,57.10
2018-05-10T01:27:07.437Z,56.80
2018-05-10T01:28:07.410Z,57.70
2018-05-10T01:29:07.390Z,57.70
2018-05-10T01:30:07.361Z,57.10
2018-05-10T01:31:07.345Z,58.20
2018-05-10T01:32:07.318Z,57.90
2018-05-10T01:33:07.291Z,57.10
2018-05-10T01:34:07.267Z,57.70
2018-05-10T01:35:07.247Z,56.50
2018-05-10T01:36:07.218Z,58.10
2018-05-10T01:37:07.201Z,57.80
2018-05-10T01:38:07.172Z,57.80
2018-05-10T01:39:07.153Z,57.90
2018-05-10T01:40:07.129Z,58.70
2018-05-10T01:41:07.137Z,58.60
2018-05-10T01:42:07.074Z,56.70
2018-05-10T01:43:07.058Z,57.60
2018-05-10T01:44:07.030Z,57.40
2018-05-10T01:45:07.013Z,56.70
2018-05-10T01:46:06.983Z,57.60
2018-05-10T01:47:06.964Z,56.00
2018-05-10T01:48:06.939Z,56.60
2018-05-10T01:49:06.912Z,56.00
2018-05-10T01:50:06.887Z,56.70
2018-05-10T01:51:06.865Z,57.50
2018-05-10T01:52:06.834Z,57.10
2018-05-10T01:53:06.812Z,57.60
2018-05-10T01:54:06.790Z,59.80
2018-05-10T01:55:06.767Z,57.50
2018-05-10T01:56:06.740Z,57.20
2018-05-10T01:57:06.715Z,58.90
2018-05-10T01:58:06.698Z,57.70
2018-05-10T01:59:06.671Z,58.70
2018-05-10T02:00:06.651Z,58.10
2018-05-10T02:01:06.619Z,59.30
2018-05-10T02:02:06.600Z,59.20
2018-05-10T02:03:06.571Z,59.80
2018-05-10T02:04:06.551Z,59.20
2018-05-10T02:05:06.529Z,59.40
2018-05-10T02:06:06.502Z,59.60
2018-05-10T02:07:06.477Z,60.60
2018-05-10T02:08:06.452Z,59.60
2018-05-10T02:09:06.431Z,60.40
2018-05-10T02:10:06.405Z,61.00
2018-05-10T02:11:06.385Z,60.60
2018-05-10T02:12:06.351Z,60.70
2018-05-10T02:13:06.334Z,61.80
2018-05-10T02:14:06.306Z,60.50
2018-05-10T02:15:06.287Z,59.90
2018-05-10T02:16:06.262Z,60.40
2018-05-10T02:17:06.245Z,58.80
2018-05-10T02:18:06.217Z,57.90
2018-05-10T02:19:06.184Z,58.00
2018-05-10T02:20:06.168Z,58.40
2018-05-10T02:21:06.185Z,59.20
2018-05-10T02:22:06.121Z,58.60
2018-05-10T02:23:06.089Z,59.80
2018-05-10T02:24:06.068Z,57.90
2018-05-10T02:25:06.040Z,58.30
2018-05-10T02:26:06.019Z,56.90
2018-05-10T02:27:05.989Z,55.10
2018-05-10T02:28:05.978Z,55.20
2018-05-10T02:29:05.942Z,56.80
2018-05-10T02:30:05.924Z,55.70
2018-05-10T02:31:05.891Z,52.90
2018-05-10T02:32:05.907Z,52.70
2018-05-10T02:33:05.843Z,51.20
2018-05-10T02:34:05.827Z,52.60
2018-05-10T02:35:05.797Z,51.50
2018-05-10T02:36:05.775Z,51.90
2018-05-10T02:37:05.756Z,51.10
2018-05-10T02:38:05.744Z,50.50
2018-05-10T02:39:05.700Z,48.90
2018-05-10T02:40:05.680Z,49.50
2018-05-10T02:41:05.656Z,49.30
2018-05-10T02:42:05.627Z,49.50
2018-05-10T02:43:05.607Z,47.40
2018-05-10T02:44:05.581Z,47.30
2018-05-10T02:45:05.659Z,47.60
2018-05-10T02:46:05.528Z,46.90
2018-05-10T02:47:05.505Z,46.50
2018-05-10T02:48:05.482Z,46.20
2018-05-10T02:49:05.461Z,46.50
2018-05-10T02:50:05.430Z,44.60
2018-05-10T02:51:05.405Z,46.10
2018-05-10T02:52:05.387Z,44.40
2018-05-10T02:53:05.357Z,45.00
2018-05-10T02:54:05.333Z,45.10
2018-05-10T02:55:05.309Z,43.40
2018-05-10T02:56:05.287Z,44.40
2018-05-10T02:57:05.264Z,43.80
2018-05-10T02:58:05.233Z,43.10
2018-05-10T02:59:05.209Z,44.40
2018-05-10T03:00:05.194Z,41.50
2018-05-10T03:01:05.167Z,43.10
2018-05-10T03:02:05.137Z,42.40
2018-05-10T03:03:05.112Z,43.00
2018-05-10T03:04:05.095Z,41.60
2018-05-10T03:05:05.067Z,42.30
2018-05-10T03:06:05.045Z,41.80
2018-05-10T03:07:05.015Z,42.00
2018-05-10T03:08:04.998Z,40.60
2018-05-10T03:09:04.973Z,40.90
2018-05-10T03:10:04.938Z,40.10
2018-05-10T03:11:04.914Z,41.70
2018-05-10T03:12:04.899Z,40.50
2018-05-10T03:13:04.869Z,40.20
2018-05-10T03:14:04.852Z,39.20
2018-05-10T03:15:04.823Z,38.60
2018-05-10T03:16:04.800Z,37.60
2018-05-10T03:17:04.769Z,38.40
2018-05-10T03:18:04.748Z,38.50
2018-05-10T03:19:04.721Z,37.90
2018-05-10T03:20:04.700Z,38.70
2018-05-10T03:21:04.674Z,39.10
2018-05-10T03:22:04.650Z,36.30
2018-05-10T03:23:04.619Z,36.30
2018-05-10T03:24:04.603Z,37.10
2018-05-10T03:25:04.572Z,36.90
2018-05-10T03:26:04.554Z,35.30
2018-05-10T03:27:04.523Z,36.40
2018-05-10T03:28:04.502Z,35.70
2018-05-10T03:29:04.476Z,33.90
2018-05-10T03:30:04.453Z,34.30
2018-05-10T03:31:04.424Z,34.30
2018-05-10T03:32:04.405Z,32.10
2018-05-10T03:33:04.375Z,33.20
2018-05-10T03:34:04.357Z,31.50
2018-05-10T03:35:04.332Z,32.20
2018-05-10T03:36:04.303Z,31.00
2018-05-10T03:37:04.276Z,30.00
2018-05-10T03:38:04.264Z,30.80
2018-05-10T03:39:04.235Z,28.70
2018-05-10T03:40:04.201Z,28.90
2018-05-10T03:41:04.188Z,28.70
2018-05-10T03:42:04.156Z,29.10
2018-05-10T03:43:04.128Z,29.30
2018-05-10T03:44:04.111Z,28.90
2018-05-10T03:45:04.085Z,28.80
2018-05-10T03:46:04.056Z,28.60
2018-05-10T03:47:04.032Z,29.30
2018-05-10T03:48:04.009Z,29.70
2018-05-10T03:49:03.992Z,28.60
2018-05-10T03:50:03.954Z,28.90
2018-05-10T03:51:03.938Z,28.40
2018-05-10T03:52:03.907Z,28.40
2018-05-10T03:53:03.958Z,27.70
2018-05-10T03:54:03.862Z,27.30
2018-05-10T03:55:03.834Z,27.40
2018-05-10T03:56:03.809Z,26.20
2018-05-10T03:57:03.787Z,26.00
2018-05-10T03:58:03.761Z,26.40
2018-05-10T03:59:03.743Z,26.20
2018-05-10T04:00:03.713Z,25.60
2018-05-10T04:01:03.693Z,25.80
2018-05-10T04:02:03.659Z,26.60
2018-05-10T04:03:03.635Z,25.50
2018-05-10T04:04:03.618Z,24.10
2018-05-10T04:05:03.593Z,24.40
2018-05-10T04:06:03.649Z,25.60
2018-05-10T04:07:03.535Z,24.70
2018-05-10T04:08:03.520Z,24.50
2018-05-10T04:09:03.487Z,22.50
2018-05-10T04:10:03.469Z,23.00
2018-05-10T04:11:03.440Z,22.80
2018-05-10T04:12:03.417Z,21.10
2018-05-10T04:13:03.389Z,22.00
2018-05-10T04:14:03.366Z,22.10
2018-05-10T04:15:03.343Z,20.80
2018-05-10T04:16:03.320Z,20.80
2018-05-10T04:17:03.289Z,20.90
2018-05-10T04:18:03.272Z,19.90
2018-05-10T04:19:03.240Z,20.20
2018-05-10T04:20:03.224Z,20.10
2018-05-10T04:21:03.192Z,19.30
2018-05-10T04:22:03.171Z,18.60
2018-05-10T04:23:03.226Z,19.30
2018-05-10T04:24:03.114Z,18.90
2018-05-10T04:25:03.100Z,19.80
2018-05-10T04:26:03.068Z,19.30
2018-05-10T04:27:03.045Z,19.90
2018-05-10T04:28:03.019Z,19.30
2018-05-10T04:29:02.998Z,20.00
2018-05-10T04:30:02.971Z,19.30
2018-05-10T04:31:02.946Z,19.70
2018-05-10T04:32:02.920Z,19.10
2018-05-10T04:33:03.628Z,19.10
2018-05-10T04:34:02.880Z,19.20
2018-05-10T04:35:02.851Z,20.30
2018-05-10T04:36:02.824Z,19.10
2018-05-10T04:37:02.806Z,20.40
2018-05-10T04:38:02.783Z,19.90
2018-05-10T04:39:02.752Z,19.90
2018-05-10T04:40:02.718Z,20.00
2018-05-10T04:41:02.700Z,20.90
2018-05-10T04:42:02.674Z,20.90
2018-05-10T04:43:02.650Z,19.90
2018-05-10T04:44:02.624Z,21.30
2018-05-10T04:45:02.595Z,20.50
2018-05-10T04:46:02.579Z,21.30
2018-05-10T04:47:02.554Z,20.10
2018-05-10T04:48:02.529Z,20.70
2018-05-10T04:49:02.507Z,20.50
2018-05-10T04:50:02.478Z,20.50
2018-05-10T04:51:02.453Z,19.90
2018-05-10T04:52:02.433Z,21.20
2018-05-10T04:53:02.403Z,21.60
2018-05-10T04:54:02.381Z,20.20
2018-05-10T04:55:02.353Z,20.60
2018-05-10T04:56:02.326Z,20.80
2018-05-10T04:57:02.304Z,21.70
2018-05-10T04:58:02.279Z,21.40
2018-05-10T04:59:02.260Z,21.20
2018-05-10T05:00:02.227Z,20.90
2018-05-10T05:01:02.208Z,21.40
2018-05-10T05:02:02.174Z,22.90
2018-05-10T05:03:02.164Z,24.40
2018-05-10T05:04:02.135Z,25.40
2018-05-10T05:05:02.100Z,26.80
2018-05-10T05:06:02.077Z,28.00
2018-05-10T05:07:02.052Z,27.60
2018-05-10T05:08:02.033Z,28.40
2018-05-10T05:09:02.083Z,29.70
2018-05-10T05:10:01.980Z,29.80
2018-05-10T05:11:01.953Z,29.40
2018-05-10T05:12:02.031Z,29.80
2018-05-10T05:13:01.947Z,28.50
2018-05-10T05:14:01.880Z,30.90
2018-05-10T05:15:01.866Z,29.80
2018-05-10T05:16:01.835Z,30.70
2018-05-10T05:17:01.803Z,30.80
2018-05-10T05:18:01.788Z,30.00
2018-05-10T05:19:01.765Z,31.10
2018-05-10T05:20:01.729Z,31.20
2018-05-10T05:21:01.752Z,32.10
2018-05-10T05:22:01.686Z,30.90
2018-05-10T05:23:01.660Z,32.90
2018-05-10T05:24:01.641Z,33.10
2018-05-10T05:25:01.613Z,32.00
2018-05-10T05:26:01.584Z,31.20
2018-05-10T05:27:01.561Z,33.00
2018-05-10T05:28:01.567Z,31.00
2018-05-10T05:29:01.510Z,31.80
2018-05-10T05:30:01.486Z,32.90
2018-05-10T05:31:01.465Z,31.80
2018-05-10T05:32:01.432Z,32.00
2018-05-10T05:33:01.419Z,31.80
2018-05-10T05:34:01.382Z,31.40
2018-05-10T05:35:01.361Z,32.80
2018-05-10T05:36:01.343Z,32.90
2018-05-10T05:37:01.326Z,30.90
2018-05-10T05:38:01.291Z,31.50
2018-05-10T05:39:01.261Z,32.60
2018-05-10T05:40:01.245Z,29.60
2018-05-10T05:41:01.227Z,30.30
2018-05-10T05:42:01.189Z,30.30
2018-05-10T05:43:01.169Z,34.60
2018-05-10T05:44:01.135Z,30.70
2018-05-10T05:45:01.115Z,31.10
2018-05-10T05:46:01.091Z,30.60
2018-05-10T05:47:01.068Z,30.80
2018-05-10T05:48:01.038Z,31.40
2018-05-10T05:49:01.033Z,30.40
2018-05-10T05:50:00.995Z,28.50
2018-05-10T05:51:00.965Z,30.00
2018-05-10T05:52:00.944Z,31.00
2018-05-10T05:53:00.914Z,30.60
2018-05-10T05:54:00.887Z,33.60
2018-05-10T05:55:00.867Z,31.60
2018-05-10T05:56:00.843Z,32.50
2018-05-10T05:57:00.815Z,33.30
2018-05-10T05:58:00.799Z,31.60
2018-05-10T05:59:00.774Z,31.00
2018-05-10T06:00:00.745Z,32.30
2018-05-10T06:01:00.824Z,30.90
2018-05-10T06:02:00.692Z,33.80
2018-05-10T06:03:00.673Z,33.00
2018-05-10T06:04:00.642Z,32.60
2018-05-10T06:05:00.625Z,33.10
2018-05-10T06:06:00.593Z,34.60
2018-05-10T06:07:00.572Z,31.50
2018-05-10T06:08:07.706Z,32.10
2018-05-10T06:09:53.431Z,37.20
2018-05-10T06:10:53.438Z,33.90
2018-05-10T06:12:46.291Z,33.20
2018-05-10T06:13:46.232Z,32.00
2018-05-10T06:15:39.122Z,33.00
2018-05-10T06:16:39.084Z,32.10
2018-05-10T06:17:39.061Z,33.90
2018-05-10T06:18:39.033Z,32.30
2018-05-10T06:19:39.016Z,34.10
2018-05-10T06:20:38.983Z,33.20
2018-05-10T06:21:38.971Z,32.00
2018-05-10T06:22:38.935Z,31.80
2018-05-10T06:23:38.927Z,31.50
2018-05-10T06:24:38.889Z,29.70
2018-05-10T06:25:39.283Z,30.60
2018-05-10T06:26:38.843Z,30.10
2018-05-10T06:27:38.821Z,30.60
2018-05-10T06:28:38.789Z,30.40
2018-05-10T06:29:38.772Z,29.20
2018-05-10T06:30:38.745Z,29.20
2018-05-10T06:31:38.716Z,27.90
2018-05-10T06:32:38.690Z,27.30
2018-05-10T06:33:38.667Z,27.80
2018-05-10T06:34:38.639Z,26.80
2018-05-10T06:35:38.619Z,27.30
2018-05-10T06:36:38.590Z,25.80
2018-05-10T06:37:38.570Z,25.90
2018-05-10T06:38:38.544Z,27.10
2018-05-10T06:39:38.514Z,25.40
2018-05-10T06:40:38.498Z,24.90
2018-05-10T06:41:38.475Z,25.00
2018-05-10T06:42:38.444Z,24.70
2018-05-10T06:43:38.423Z,24.70
2018-05-10T06:44:38.390Z,24.10
2018-05-10T06:45:38.374Z,24.40
2018-05-10T06:46:38.351Z,23.80
2018-05-10T06:47:38.323Z,23.40
2018-05-10T06:48:38.295Z,23.60
2018-05-10T06:49:38.272Z,23.60
2018-05-10T06:50:38.246Z,22.80
2018-05-10T06:51:38.228Z,23.70
2018-05-10T06:52:38.199Z,23.50
2018-05-10T06:53:38.171Z,24.20
2018-05-10T06:54:38.225Z,23.60
2018-05-10T06:55:38.122Z,23.80
2018-05-10T06:56:38.100Z,24.40
2018-05-10T06:57:38.077Z,23.00
2018-05-10T06:58:38.082Z,23.30
2018-05-10T06:59:38.087Z,22.70
2018-05-10T07:00:37.999Z,22.70
2018-05-10T07:01:38.584Z,22.90
2018-05-10T07:02:37.951Z,21.60
2018-05-10T07:03:37.923Z,20.90
2018-05-10T07:04:42.147Z,20.60
2018-05-10T07:05:37.879Z,21.10
2018-05-10T07:06:37.852Z,20.80
2018-05-10T07:07:37.821Z,21.80
2018-05-10T07:08:37.803Z,21.10
2018-05-10T07:09:37.806Z,20.50
2018-05-10T07:10:37.749Z,20.00
2018-05-10T07:11:37.727Z,20.20
2018-05-10T07:12:37.736Z,19.40
2018-05-10T07:13:37.677Z,20.10
2018-05-10T07:14:37.654Z,19.30
2018-05-10T07:15:37.628Z,19.30
2018-05-10T07:16:37.607Z,18.90
2018-05-10T07:17:37.601Z,19.80
2018-05-10T07:18:37.553Z,19.50
2018-05-10T07:19:37.527Z,18.90
2018-05-10T07:20:37.503Z,18.90
2018-05-10T07:21:37.480Z,18.90
2018-05-10T07:22:37.452Z,19.20
2018-05-10T07:23:37.433Z,19.00
2018-05-10T07:24:37.402Z,18.10
2018-05-10T07:25:37.379Z,18.70
2018-05-10T07:26:37.357Z,18.70
2018-05-10T07:27:37.335Z,18.20
2018-05-10T07:28:37.305Z,18.40
2018-05-10T07:29:37.283Z,18.20
2018-05-10T07:30:37.254Z,18.30
2018-05-10T07:31:37.234Z,17.60
2018-05-10T07:32:37.221Z,16.90
2018-05-10T07:33:37.186Z,17.20
2018-05-10T07:34:37.155Z,16.70
2018-05-10T07:35:37.130Z,16.50
2018-05-10T07:36:37.105Z,16.30
2018-05-10T07:37:37.083Z,15.50
2018-05-10T07:38:37.056Z,16.20
2018-05-10T07:39:37.035Z,15.20
2018-05-10T07:40:37.011Z,15.50
2018-05-10T07:41:36.987Z,14.30
2018-05-10T07:42:36.957Z,14.50
2018-05-10T07:43:36.931Z,14.50
2018-05-10T07:44:36.920Z,14.30
2018-05-10T07:45:36.885Z,14.10
2018-05-10T07:46:36.864Z,14.10
2018-05-10T07:47:36.841Z,14.00
2018-05-10T07:48:36.810Z,14.20
2018-05-10T07:49:36.784Z,13.50
2018-05-10T07:50:36.772Z,14.00
2018-05-10T07:51:36.770Z,14.50
2018-05-10T07:52:36.744Z,13.70
2018-05-10T07:53:36.723Z,13.60
2018-05-10T07:54:36.703Z,13.50
2018-05-10T07:55:36.645Z,13.30
2018-05-10T07:56:36.618Z,13.30
2018-05-10T07:57:36.603Z,13.40
2018-05-10T07:58:36.562Z,13.00
2018-05-10T07:59:36.544Z,13.60
2018-05-10T08:00:36.514Z,14.60
2018-05-10T08:01:36.490Z,13.50
2018-05-10T08:02:36.475Z,13.50
2018-05-10T08:03:36.438Z,14.10
2018-05-10T08:04:36.421Z,14.00
2018-05-10T08:05:36.401Z,12.80
2018-05-10T08:06:36.375Z,13.10
2018-05-10T08:07:36.349Z,12.80
2018-05-10T08:08:36.321Z,12.30
2018-05-10T08:09:36.292Z,11.70
2018-05-10T08:10:36.269Z,11.40
2018-05-10T08:11:36.244Z,11.40
2018-05-10T08:12:36.227Z,10.90
2018-05-10T08:13:36.199Z,10.60
2018-05-10T08:14:36.171Z,10.50
2018-05-10T08:15:36.146Z,11.30
2018-05-10T08:16:36.127Z,10.20
2018-05-10T08:17:36.099Z,10.90
2018-05-10T08:18:36.081Z,10.30
2018-05-10T08:19:36.054Z,10.20
2018-05-10T08:20:36.027Z,10.50
2018-05-10T08:21:36.006Z,10.30
2018-05-10T08:22:35.974Z,10.30
2018-05-10T08:23:35.956Z,10.10
2018-05-10T08:24:35.924Z,10.10
2018-05-10T08:25:35.899Z,9.40
2018-05-10T08:26:35.885Z,10.20
2018-05-10T08:27:35.850Z,9.80
2018-05-10T08:28:35.835Z,9.10
2018-05-10T08:29:35.802Z,9.00
2018-05-10T08:30:35.786Z,9.30
2018-05-10T08:31:35.755Z,8.90
2018-05-10T08:32:35.736Z,9.20
2018-05-10T08:33:35.707Z,8.90
2018-05-10T08:34:35.686Z,8.30
2018-05-10T08:35:35.663Z,8.10
2018-05-10T08:36:35.660Z,8.10
2018-05-10T08:37:35.608Z,8.40
2018-05-10T08:38:35.593Z,8.10
2018-05-10T08:39:35.558Z,8.10
2018-05-10T08:40:35.545Z,7.50
2018-05-10T08:41:35.522Z,7.70
2018-05-10T08:42:35.486Z,8.30
2018-05-10T08:43:35.469Z,7.50
2018-05-10T08:44:35.437Z,7.90
2018-05-10T08:45:35.416Z,8.30
2018-05-10T08:46:35.394Z,8.40
2018-05-10T08:47:35.406Z,8.30
2018-05-10T08:48:35.346Z,8.00
2018-05-10T08:49:35.316Z,9.00
2018-05-10T08:50:35.302Z,9.30
2018-05-10T08:51:35.385Z,9.00
2018-05-10T08:52:35.248Z,9.40
2018-05-10T08:53:35.227Z,9.80
2018-05-10T08:54:35.196Z,10.10
2018-05-10T08:55:35.175Z,10.30
2018-05-10T08:56:35.151Z,9.80
2018-05-10T08:57:35.120Z,9.70
2018-05-10T08:58:35.107Z,9.90
2018-05-10T08:59:35.094Z,9.80
2018-05-10T09:00:35.051Z,10.00
2018-05-10T09:01:35.032Z,10.40
2018-05-10T09:02:35.007Z,10.30
2018-05-10T09:03:34.986Z,10.10
2018-05-10T09:04:34.953Z,11.00
2018-05-10T09:05:34.937Z,10.90
2018-05-10T09:06:34.906Z,11.10
2018-05-10T09:07:34.881Z,11.00
2018-05-10T09:08:34.861Z,10.40
2018-05-10T09:09:34.833Z,9.90
2018-05-10T09:10:34.814Z,10.20
2018-05-10T09:11:34.789Z,10.00
2018-05-10T09:12:34.760Z,10.00
2018-05-10T09:13:34.743Z,10.50
2018-05-10T09:14:34.711Z,10.50
2018-05-10T09:15:34.689Z,10.70
2018-05-10T09:16:34.667Z,10.70
2018-05-10T09:17:34.641Z,10.60
2018-05-10T09:18:34.619Z,10.40
2018-05-10T09:19:34.598Z,11.00
2018-05-10T09:20:34.572Z,12.90
2018-05-10T09:21:34.549Z,13.80
2018-05-10T09:22:34.521Z,14.40
2018-05-10T09:23:34.500Z,14.90
2018-05-10T09:24:34.476Z,15.50
2018-05-10T09:25:34.453Z,16.40
2018-05-10T09:26:34.433Z,16.40
2018-05-10T09:27:34.401Z,15.80
2018-05-10T09:28:34.384Z,15.70
2018-05-10T09:29:34.357Z,16.20
2018-05-10T09:30:34.329Z,15.70
2018-05-10T09:31:34.311Z,15.20
2018-05-10T09:32:34.282Z,15.60
2018-05-10T09:33:34.256Z,15.60
2018-05-10T09:34:34.237Z,14.50
2018-05-10T09:35:34.206Z,13.70
2018-05-10T09:36:34.196Z,12.90
2018-05-10T09:37:34.162Z,12.10
2018-05-10T09:38:34.140Z,11.60
2018-05-10T09:39:34.137Z,11.40
2018-05-10T09:40:34.092Z,10.90
2018-05-10T09:41:34.067Z,11.10
2018-05-10T09:42:34.049Z,11.50
2018-05-10T09:43:34.027Z,11.40
2018-05-10T09:44:34.009Z,11.00
2018-05-10T09:45:33.976Z,11.80
2018-05-10T09:46:33.954Z,11.10
2018-05-10T09:47:33.930Z,11.30
2018-05-10T09:48:33.897Z,12.00
2018-05-10T09:49:33.877Z,12.50
2018-05-10T09:50:33.854Z,12.30
2018-05-10T09:51:33.828Z,12.50
2018-05-10T09:52:33.876Z,12.00
2018-05-10T09:53:33.785Z,11.80
2018-05-10T09:54:33.763Z,12.10
2018-05-10T09:55:33.738Z,11.00
2018-05-10T09:56:33.712Z,10.90
2018-05-10T09:57:33.687Z,10.40
2018-05-10T09:58:33.664Z,9.30
2018-05-10T09:59:33.647Z,8.80
2018-05-10T10:00:33.613Z,8.50
2018-05-10T10:01:33.595Z,6.80
2018-05-10T10:02:33.572Z,5.80
2018-05-10T10:03:33.540Z,5.70
2018-05-10T10:04:33.526Z,5.70
2018-05-10T10:05:33.495Z,5.70
2018-05-10T10:06:33.477Z,5.70
2018-05-10T10:07:33.450Z,5.80
2018-05-10T10:08:33.424Z,5.90
2018-05-10T10:09:33.408Z,6.00
2018-05-10T10:10:33.376Z,6.30
2018-05-10T10:11:33.360Z,6.10
2018-05-10T10:12:33.332Z,6.40
2018-05-10T10:13:33.305Z,6.60
2018-05-10T10:14:33.287Z,6.90
2018-05-10T10:15:33.255Z,6.70
2018-05-10T10:16:33.238Z,7.60
2018-05-10T10:17:33.228Z,7.70
2018-05-10T10:18:33.183Z,7.00
2018-05-10T10:19:33.169Z,7.40
2018-05-10T10:20:33.138Z,7.80
2018-05-10T10:21:33.116Z,8.30
2018-05-10T10:22:33.092Z,8.30
2018-05-10T10:23:33.065Z,6.70
2018-05-10T10:24:33.047Z,6.60
2018-05-10T10:25:33.021Z,6.70
2018-05-10T10:26:32.995Z,6.00
2018-05-10T10:27:32.976Z,5.90
2018-05-10T10:28:32.961Z,5.30
2018-05-10T10:29:32.929Z,5.10
2018-05-10T10:30:32.894Z,4.60
2018-05-10T10:31:32.878Z,4.50
2018-05-10T10:32:32.849Z,4.40
2018-05-10T10:33:32.824Z,4.10
2018-05-10T10:34:32.814Z,3.70
2018-05-10T10:35:32.784Z,3.00
2018-05-10T10:36:32.761Z,3.00
2018-05-10T10:37:32.730Z,2.60
2018-05-10T10:38:32.706Z,2.70
2018-05-10T10:39:32.683Z,2.90
2018-05-10T10:40:32.661Z,2.70
2018-05-10T10:41:32.636Z,2.50
2018-05-10T10:42:32.615Z,2.70
2018-05-10T10:43:32.596Z,2.90
2018-05-10T10:44:32.564Z,2.40
2018-05-10T10:45:32.631Z,2.30
2018-05-10T10:46:32.517Z,2.60
2018-05-10T10:47:32.492Z,2.30
2018-05-10T10:48:32.476Z,2.70
2018-05-10T10:49:32.447Z,2.10
2018-05-10T10:50:32.426Z,2.00
2018-05-10T10:51:32.404Z,1.80
2018-05-10T10:52:32.372Z,1.20
2018-05-10T10:53:32.358Z,1.30
2018-05-10T10:54:32.333Z,1.30
2018-05-10T10:55:32.311Z,1.60
2018-05-10T10:56:32.290Z,1.30
2018-05-10T10:57:32.260Z,1.30
2018-05-10T10:58:32.234Z,1.30
2018-05-10T10:59:32.209Z,1.50
2018-05-10T11:00:32.243Z,1.50
2018-05-10T11:01:32.191Z,1.40
2018-05-10T11:02:32.141Z,1.80
2018-05-10T11:03:32.120Z,1.70
2018-05-10T11:04:32.090Z,1.70
2018-05-10T11:05:32.071Z,1.70
2018-05-10T11:06:32.044Z,1.60
2018-05-10T11:07:32.015Z,1.90
2018-05-10T11:08:32.001Z,2.00
2018-05-10T11:09:31.980Z,2.10
2018-05-10T11:10:31.952Z,2.40
2018-05-10T11:11:31.929Z,2.50
2018-05-10T11:12:31.899Z,2.40
2018-05-10T11:13:31.883Z,2.20
2018-05-10T11:14:31.849Z,2.40
2018-05-10T11:15:31.834Z,2.70
2018-05-10T11:16:31.805Z,2.50
2018-05-10T11:17:31.781Z,2.60
2018-05-10T11:18:31.757Z,2.60
2018-05-10T11:19:31.729Z,3.10
2018-05-10T11:20:31.713Z,2.70
2018-05-10T11:21:31.683Z,3.10
2018-05-10T11:22:31.692Z,3.00
2018-05-10T11:23:31.639Z,3.60
2018-05-10T11:24:31.606Z,3.60
2018-05-10T11:25:31.598Z,4.20
2018-05-10T11:26:31.564Z,4.30
2018-05-10T11:27:31.544Z,5.00
2018-05-10T11:28:31.514Z,4.70
2018-05-10T11:29:31.492Z,5.30
2018-05-10T11:30:31.463Z,5.30
2018-05-10T11:31:31.442Z,5.00
2018-05-10T11:32:31.421Z,5.70
2018-05-10T11:33:31.393Z,5.80
2018-05-10T11:34:31.372Z,5.70
2018-05-10T11:35:31.342Z,5.70
2018-05-10T11:36:31.322Z,5.40
2018-05-10T11:37:31.296Z,5.40
2018-05-10T11:38:31.269Z,5.00
2018-05-10T11:39:31.247Z,5.10
2018-05-10T11:40:31.224Z,5.50
2018-05-10T11:41:31.193Z,5.10
2018-05-10T11:42:31.170Z,5.80
2018-05-10T11:43:31.151Z,5.30
2018-05-10T11:44:31.176Z,6.30
2018-05-10T11:45:31.104Z,6.20
2018-05-10T11:46:31.074Z,6.10
2018-05-10T11:47:31.055Z,6.30
2018-05-10T11:48:31.027Z,5.90
2018-05-10T11:49:31.007Z,6.20
2018-05-10T11:50:30.973Z,6.20
2018-05-10T11:51:30.955Z,5.90
2018-05-10T11:52:30.928Z,6.60
2018-05-10T11:53:30.903Z,7.30
2018-05-10T11:54:30.881Z,7.00
2018-05-10T11:55:30.855Z,7.20
2018-05-10T11:56:30.833Z,7.10
2018-05-10T11:57:30.812Z,7.40
2018-05-10T11:58:30.781Z,8.40
2018-05-10T11:59:30.762Z,8.50
2018-05-10T12:00:30.735Z,8.30
2018-05-10T12:01:30.710Z,8.30
2018-05-10T12:02:30.749Z,9.20
2018-05-10T12:03:30.656Z,9.30
2018-05-10T12:04:30.641Z,9.20
2018-05-10T12:05:30.619Z,10.00
2018-05-10T12:06:30.586Z,10.20
2018-05-10T12:07:30.562Z,10.50
2018-05-10T12:08:30.547Z,10.80
2018-05-10T12:09:30.512Z,11.20
2018-05-10T12:10:30.496Z,12.90
2018-05-10T12:11:30.468Z,12.40
2018-05-10T12:12:30.455Z,12.70
2018-05-10T12:13:30.422Z,13.60
2018-05-10T12:14:30.401Z,14.10
2018-05-10T12:15:30.374Z,14.40
2018-05-10T12:16:30.344Z,15.40
2018-05-10T12:17:30.329Z,16.60
2018-05-10T12:18:30.291Z,19.00
2018-05-10T12:19:30.280Z,19.00
2018-05-10T12:20:30.293Z,19.30
2018-05-10T12:21:30.232Z,19.60
2018-05-10T12:22:30.197Z,19.50
2018-05-10T12:23:30.171Z,20.80
2018-05-10T12:24:30.155Z,22.30
2018-05-10T12:25:30.214Z,22.50
2018-05-10T12:26:30.100Z,24.00
2018-05-10T12:27:30.085Z,26.00
2018-05-10T12:28:30.048Z,26.30
2018-05-10T12:29:30.042Z,29.90
2018-05-10T12:30:30.075Z,36.60
2018-05-10T12:31:29.986Z,40.40
2018-05-10T12:32:29.948Z,44.70
2018-05-10T12:33:29.932Z,43.60
2018-05-10T12:34:29.907Z,42.60
2018-05-10T12:35:29.886Z,41.50
2018-05-10T12:36:29.861Z,42.20
2018-05-10T12:37:29.828Z,42.30
2018-05-10T12:38:29.816Z,41.80
2018-05-10T12:39:29.783Z,40.60
2018-05-10T12:40:29.759Z,36.80
2018-05-10T12:41:29.806Z,34.10
2018-05-10T12:42:29.707Z,33.60
2018-05-10T12:43:29.684Z,33.70
2018-05-10T12:44:29.659Z,33.50
2018-05-10T12:45:29.641Z,33.90
2018-05-10T12:46:29.615Z,32.70
2018-05-10T12:47:29.590Z,33.00
2018-05-10T12:48:29.575Z,32.00
2018-05-10T12:49:29.540Z,33.20
2018-05-10T12:50:29.513Z,33.50
2018-05-10T12:51:29.490Z,33.70
2018-05-10T12:52:29.468Z,33.40
2018-05-10T12:53:29.440Z,32.90
2018-05-10T12:54:29.413Z,33.80
2018-05-10T12:55:29.391Z,34.00
2018-05-10T12:56:29.544Z,34.50
2018-05-10T12:57:29.346Z,33.10
2018-05-10T12:58:29.312Z,32.30
2018-05-10T12:59:29.292Z,32.90